sensor_id;sensor_type;location;lat;lon;timestamp;P1;durP1;ratioP1;P2;durP2;ratioP2
41446;SDS011;27185;52.040;4.490;2023-08-30T00:01:49;2.67;;;1.67;;
41446;SDS011;27185;52.040;4.490;2023-08-30T00:04:35;5.05;;;2.25;;
41446;SDS011;27185;52.040;4.490;2023-08-30T00:07:21;5.50;;;2.38;;
41446;SDS011;27185;52.040;4.490;2023-08-30T00:10:07;3.90;;;2.60;;
41446;SDS011;27185;52.040;4.490;2023-08-30T00:12:55;4.85;;;2.80;;
41446;SDS011;27185;52.040;4.490;2023-08-30T00:15:40;3.95;;;2.42;;
41446;SDS011;27185;52.040;4.490;2023-08-30T00:18:26;4.75;;;2.95;;
41446;SDS011;27185;52.040;4.490;2023-08-30T00:21:12;5.30;;;3.17;;
41446;SDS011;27185;52.040;4.490;2023-08-30T00:23:57;5.30;;;3.30;;
41446;SDS011;27185;52.040;4.490;2023-08-30T00:26:43;7.75;;;3.85;;
41446;SDS011;27185;52.040;4.490;2023-08-30T00:29:28;6.45;;;3.97;;
41446;SDS011;27185;52.040;4.490;2023-08-30T00:32:14;6.00;;;3.67;;
41446;SDS011;27185;52.040;4.490;2023-08-30T00:35:00;5.43;;;3.38;;
41446;SDS011;27185;52.040;4.490;2023-08-30T00:37:46;5.57;;;3.42;;
41446;SDS011;27185;52.040;4.490;2023-08-30T00:40:37;6.45;;;3.65;;
41446;SDS011;27185;52.040;4.490;2023-08-30T00:43:24;5.45;;;3.60;;
41446;SDS011;27185;52.040;4.490;2023-08-30T00:46:10;6.70;;;4.28;;
41446;SDS011;27185;52.040;4.490;2023-08-30T00:48:56;7.90;;;3.80;;
41446;SDS011;27185;52.040;4.490;2023-08-30T00:51:42;6.57;;;3.92;;
41446;SDS011;27185;52.040;4.490;2023-08-30T00:54:28;5.82;;;3.85;;
41446;SDS011;27185;52.040;4.490;2023-08-30T00:57:14;9.50;;;4.13;;
41446;SDS011;27185;52.040;4.490;2023-08-30T01:00:01;5.95;;;3.70;;
41446;SDS011;27185;52.040;4.490;2023-08-30T01:02:48;6.15;;;3.70;;
41446;SDS011;27185;52.040;4.490;2023-08-30T01:05:34;7.60;;;3.92;;
41446;SDS011;27185;52.040;4.490;2023-08-30T01:08:20;7.25;;;3.67;;
41446;SDS011;27185;52.040;4.490;2023-08-30T01:14:12;5.97;;;3.25;;
41446;SDS011;27185;52.040;4.490;2023-08-30T01:17:04;6.28;;;4.10;;
41446;SDS011;27185;52.040;4.490;2023-08-30T01:19:57;7.63;;;4.07;;
41446;SDS011;27185;52.040;4.490;2023-08-30T01:22:55;7.05;;;3.88;;
41446;SDS011;27185;52.040;4.490;2023-08-30T01:28:51;6.75;;;3.45;;
41446;SDS011;27185;52.040;4.490;2023-08-30T01:31:39;6.22;;;3.47;;
41446;SDS011;27185;52.040;4.490;2023-08-30T01:34:25;10.75;;;4.15;;
41446;SDS011;27185;52.040;4.490;2023-08-30T01:37:11;7.13;;;4.30;;
41446;SDS011;27185;52.040;4.490;2023-08-30T01:39:59;6.53;;;4.03;;
41446;SDS011;27185;52.040;4.490;2023-08-30T01:42:46;9.43;;;4.15;;
41446;SDS011;27185;52.040;4.490;2023-08-30T01:45:34;6.88;;;4.57;;
41446;SDS011;27185;52.040;4.490;2023-08-30T01:48:21;7.30;;;4.70;;
41446;SDS011;27185;52.040;4.490;2023-08-30T01:51:09;8.50;;;5.30;;
41446;SDS011;27185;52.040;4.490;2023-08-30T01:53:55;8.15;;;4.88;;
41446;SDS011;27185;52.040;4.490;2023-08-30T01:56:42;9.30;;;5.78;;
41446;SDS011;27185;52.040;4.490;2023-08-30T01:59:29;12.73;;;6.43;;
41446;SDS011;27185;52.040;4.490;2023-08-30T02:02:14;9.00;;;5.38;;
41446;SDS011;27185;52.040;4.490;2023-08-30T02:05:01;9.90;;;4.70;;
41446;SDS011;27185;52.040;4.490;2023-08-30T02:11:17;9.20;;;4.85;;
41446;SDS011;27185;52.040;4.490;2023-08-30T02:14:07;8.68;;;4.97;;
41446;SDS011;27185;52.040;4.490;2023-08-30T02:16:56;7.88;;;3.95;;
41446;SDS011;27185;52.040;4.490;2023-08-30T02:19:42;8.30;;;3.97;;
41446;SDS011;27185;52.040;4.490;2023-08-30T02:22:30;9.25;;;5.10;;
41446;SDS011;27185;52.040;4.490;2023-08-30T02:25:16;7.95;;;3.53;;
41446;SDS011;27185;52.040;4.490;2023-08-30T02:28:01;5.95;;;3.65;;
41446;SDS011;27185;52.040;4.490;2023-08-30T02:30:47;8.10;;;4.15;;
41446;SDS011;27185;52.040;4.490;2023-08-30T02:33:33;7.45;;;4.00;;
41446;SDS011;27185;52.040;4.490;2023-08-30T02:36:19;6.70;;;4.22;;
41446;SDS011;27185;52.040;4.490;2023-08-30T02:39:05;9.95;;;5.70;;
41446;SDS011;27185;52.040;4.490;2023-08-30T02:41:51;7.80;;;4.53;;
41446;SDS011;27185;52.040;4.490;2023-08-30T02:44:36;7.53;;;4.57;;
41446;SDS011;27185;52.040;4.490;2023-08-30T02:47:22;5.63;;;4.32;;
41446;SDS011;27185;52.040;4.490;2023-08-30T02:50:07;7.72;;;4.30;;
41446;SDS011;27185;52.040;4.490;2023-08-30T02:52:53;7.13;;;5.03;;
41446;SDS011;27185;52.040;4.490;2023-08-30T02:55:39;8.05;;;5.15;;
41446;SDS011;27185;52.040;4.490;2023-08-30T02:58:24;7.30;;;4.10;;
41446;SDS011;27185;52.040;4.490;2023-08-30T03:01:10;8.13;;;5.45;;
41446;SDS011;27185;52.040;4.490;2023-08-30T03:03:55;10.77;;;6.25;;
41446;SDS011;27185;52.040;4.490;2023-08-30T03:06:41;7.95;;;5.43;;
41446;SDS011;27185;52.040;4.490;2023-08-30T03:09:27;8.43;;;5.35;;
41446;SDS011;27185;52.040;4.490;2023-08-30T03:12:12;10.82;;;5.88;;
41446;SDS011;27185;52.040;4.490;2023-08-30T03:14:58;9.30;;;5.65;;
41446;SDS011;27185;52.040;4.490;2023-08-30T03:17:43;9.55;;;5.35;;
41446;SDS011;27185;52.040;4.490;2023-08-30T03:20:29;9.63;;;5.40;;
41446;SDS011;27185;52.040;4.490;2023-08-30T03:23:14;9.02;;;5.40;;
41446;SDS011;27185;52.040;4.490;2023-08-30T03:26:06;9.05;;;6.38;;
41446;SDS011;27185;52.040;4.490;2023-08-30T03:28:56;7.45;;;5.22;;
41446;SDS011;27185;52.040;4.490;2023-08-30T03:31:41;9.38;;;5.97;;
41446;SDS011;27185;52.040;4.490;2023-08-30T03:34:28;10.10;;;6.18;;
41446;SDS011;27185;52.040;4.490;2023-08-30T03:37:14;8.55;;;5.30;;
41446;SDS011;27185;52.040;4.490;2023-08-30T03:40:00;7.35;;;5.22;;
41446;SDS011;27185;52.040;4.490;2023-08-30T03:42:46;9.13;;;5.68;;
41446;SDS011;27185;52.040;4.490;2023-08-30T03:45:36;7.80;;;6.07;;
41446;SDS011;27185;52.040;4.490;2023-08-30T03:48:21;7.20;;;4.60;;
41446;SDS011;27185;52.040;4.490;2023-08-30T03:51:07;9.52;;;5.68;;
41446;SDS011;27185;52.040;4.490;2023-08-30T03:53:53;7.53;;;5.38;;
41446;SDS011;27185;52.040;4.490;2023-08-30T03:56:39;8.75;;;5.50;;
41446;SDS011;27185;52.040;4.490;2023-08-30T03:59:25;9.15;;;6.32;;
41446;SDS011;27185;52.040;4.490;2023-08-30T04:02:12;7.70;;;5.27;;
41446;SDS011;27185;52.040;4.490;2023-08-30T04:04:57;7.05;;;5.30;;
41446;SDS011;27185;52.040;4.490;2023-08-30T04:07:43;8.43;;;5.55;;
41446;SDS011;27185;52.040;4.490;2023-08-30T04:10:28;7.22;;;4.88;;
41446;SDS011;27185;52.040;4.490;2023-08-30T04:13:14;8.88;;;5.63;;
41446;SDS011;27185;52.040;4.490;2023-08-30T04:16:00;7.78;;;4.65;;
41446;SDS011;27185;52.040;4.490;2023-08-30T04:18:46;9.93;;;4.90;;
41446;SDS011;27185;52.040;4.490;2023-08-30T04:21:31;7.28;;;5.10;;
41446;SDS011;27185;52.040;4.490;2023-08-30T04:24:17;7.03;;;5.15;;
41446;SDS011;27185;52.040;4.490;2023-08-30T04:27:02;9.30;;;5.78;;
41446;SDS011;27185;52.040;4.490;2023-08-30T04:29:48;9.65;;;6.05;;
41446;SDS011;27185;52.040;4.490;2023-08-30T04:32:34;8.65;;;5.65;;
41446;SDS011;27185;52.040;4.490;2023-08-30T04:35:19;9.30;;;5.78;;
41446;SDS011;27185;52.040;4.490;2023-08-30T04:38:05;9.02;;;5.82;;
41446;SDS011;27185;52.040;4.490;2023-08-30T04:40:56;8.02;;;5.72;;
41446;SDS011;27185;52.040;4.490;2023-08-30T04:43:42;11.57;;;4.90;;
41446;SDS011;27185;52.040;4.490;2023-08-30T04:46:28;7.82;;;5.35;;
41446;SDS011;27185;52.040;4.490;2023-08-30T04:49:14;9.32;;;5.70;;
41446;SDS011;27185;52.040;4.490;2023-08-30T04:51:59;8.20;;;5.80;;
41446;SDS011;27185;52.040;4.490;2023-08-30T04:54:45;10.98;;;6.68;;
41446;SDS011;27185;52.040;4.490;2023-08-30T04:57:30;10.18;;;6.45;;
41446;SDS011;27185;52.040;4.490;2023-08-30T05:00:17;9.82;;;6.75;;
41446;SDS011;27185;52.040;4.490;2023-08-30T05:03:04;12.23;;;7.93;;
41446;SDS011;27185;52.040;4.490;2023-08-30T05:05:49;13.52;;;8.38;;
41446;SDS011;27185;52.040;4.490;2023-08-30T05:08:35;13.73;;;8.65;;
41446;SDS011;27185;52.040;4.490;2023-08-30T05:11:20;13.70;;;9.40;;
41446;SDS011;27185;52.040;4.490;2023-08-30T05:14:06;11.55;;;8.90;;
41446;SDS011;27185;52.040;4.490;2023-08-30T05:16:52;16.35;;;10.63;;
41446;SDS011;27185;52.040;4.490;2023-08-30T05:19:38;17.90;;;10.75;;
41446;SDS011;27185;52.040;4.490;2023-08-30T05:22:23;15.65;;;9.93;;
41446;SDS011;27185;52.040;4.490;2023-08-30T05:25:09;16.50;;;8.95;;
41446;SDS011;27185;52.040;4.490;2023-08-30T05:27:54;13.27;;;9.23;;
41446;SDS011;27185;52.040;4.490;2023-08-30T05:30:41;15.63;;;8.68;;
41446;SDS011;27185;52.040;4.490;2023-08-30T05:33:28;12.95;;;9.43;;
41446;SDS011;27185;52.040;4.490;2023-08-30T05:36:14;11.43;;;8.70;;
41446;SDS011;27185;52.040;4.490;2023-08-30T05:39:00;11.00;;;7.90;;
41446;SDS011;27185;52.040;4.490;2023-08-30T05:41:45;13.70;;;8.60;;
41446;SDS011;27185;52.040;4.490;2023-08-30T05:44:31;13.20;;;8.50;;
41446;SDS011;27185;52.040;4.490;2023-08-30T05:47:16;12.80;;;8.13;;
41446;SDS011;27185;52.040;4.490;2023-08-30T05:50:04;13.02;;;8.35;;
41446;SDS011;27185;52.040;4.490;2023-08-30T05:52:49;12.10;;;7.15;;
41446;SDS011;27185;52.040;4.490;2023-08-30T05:55:36;11.38;;;8.13;;
41446;SDS011;27185;52.040;4.490;2023-08-30T05:58:22;11.07;;;7.97;;
41446;SDS011;27185;52.040;4.490;2023-08-30T06:01:07;11.23;;;8.00;;
41446;SDS011;27185;52.040;4.490;2023-08-30T06:03:53;11.38;;;7.97;;
41446;SDS011;27185;52.040;4.490;2023-08-30T06:06:39;10.80;;;7.38;;
41446;SDS011;27185;52.040;4.490;2023-08-30T06:09:25;9.75;;;7.63;;
41446;SDS011;27185;52.040;4.490;2023-08-30T06:12:10;10.90;;;8.18;;
41446;SDS011;27185;52.040;4.490;2023-08-30T06:14:56;11.32;;;8.43;;
41446;SDS011;27185;52.040;4.490;2023-08-30T06:17:41;12.55;;;8.23;;
41446;SDS011;27185;52.040;4.490;2023-08-30T06:20:27;13.05;;;8.60;;
41446;SDS011;27185;52.040;4.490;2023-08-30T06:23:13;12.93;;;8.63;;
41446;SDS011;27185;52.040;4.490;2023-08-30T06:26:00;16.47;;;8.70;;
41446;SDS011;27185;52.040;4.490;2023-08-30T06:28:47;11.48;;;8.40;;
41446;SDS011;27185;52.040;4.490;2023-08-30T06:31:32;10.63;;;7.53;;
41446;SDS011;27185;52.040;4.490;2023-08-30T06:34:18;11.82;;;7.88;;
41446;SDS011;27185;52.040;4.490;2023-08-30T06:37:03;10.13;;;7.05;;
41446;SDS011;27185;52.040;4.490;2023-08-30T06:39:49;10.73;;;7.82;;
41446;SDS011;27185;52.040;4.490;2023-08-30T06:42:35;9.20;;;6.72;;
41446;SDS011;27185;52.040;4.490;2023-08-30T06:45:21;9.32;;;7.18;;
41446;SDS011;27185;52.040;4.490;2023-08-30T06:48:07;10.20;;;6.55;;
41446;SDS011;27185;52.040;4.490;2023-08-30T06:50:53;8.20;;;6.20;;
41446;SDS011;27185;52.040;4.490;2023-08-30T06:53:43;8.57;;;5.93;;
41446;SDS011;27185;52.040;4.490;2023-08-30T06:56:28;8.73;;;6.80;;
41446;SDS011;27185;52.040;4.490;2023-08-30T06:59:14;8.77;;;5.72;;
41446;SDS011;27185;52.040;4.490;2023-08-30T07:02:00;8.32;;;5.13;;
41446;SDS011;27185;52.040;4.490;2023-08-30T07:04:45;6.97;;;5.50;;
41446;SDS011;27185;52.040;4.490;2023-08-30T07:07:31;8.35;;;5.20;;
41446;SDS011;27185;52.040;4.490;2023-08-30T07:10:18;6.72;;;5.30;;
41446;SDS011;27185;52.040;4.490;2023-08-30T07:13:04;6.82;;;5.53;;
41446;SDS011;27185;52.040;4.490;2023-08-30T07:15:55;7.07;;;5.30;;
41446;SDS011;27185;52.040;4.490;2023-08-30T07:18:40;9.05;;;5.45;;
41446;SDS011;27185;52.040;4.490;2023-08-30T07:21:26;7.53;;;6.22;;
41446;SDS011;27185;52.040;4.490;2023-08-30T07:24:11;7.60;;;5.03;;
41446;SDS011;27185;52.040;4.490;2023-08-30T07:26:57;8.43;;;6.85;;
41446;SDS011;27185;52.040;4.490;2023-08-30T07:29:43;10.27;;;6.45;;
41446;SDS011;27185;52.040;4.490;2023-08-30T07:32:28;6.32;;;5.32;;
41446;SDS011;27185;52.040;4.490;2023-08-30T07:35:14;7.32;;;5.50;;
41446;SDS011;27185;52.040;4.490;2023-08-30T07:38:00;7.13;;;5.05;;
41446;SDS011;27185;52.040;4.490;2023-08-30T07:40:45;6.78;;;4.60;;
41446;SDS011;27185;52.040;4.490;2023-08-30T07:43:31;8.52;;;5.57;;
41446;SDS011;27185;52.040;4.490;2023-08-30T07:46:16;6.00;;;5.40;;
41446;SDS011;27185;52.040;4.490;2023-08-30T07:49:02;5.72;;;5.05;;
41446;SDS011;27185;52.040;4.490;2023-08-30T07:51:48;5.95;;;4.30;;
41446;SDS011;27185;52.040;4.490;2023-08-30T07:54:34;8.48;;;5.15;;
41446;SDS011;27185;52.040;4.490;2023-08-30T07:57:19;5.47;;;3.78;;
41446;SDS011;27185;52.040;4.490;2023-08-30T08:00:05;7.50;;;4.68;;
41446;SDS011;27185;52.040;4.490;2023-08-30T08:02:51;5.43;;;4.47;;
41446;SDS011;27185;52.040;4.490;2023-08-30T08:05:37;5.97;;;4.05;;
41446;SDS011;27185;52.040;4.490;2023-08-30T08:08:22;5.32;;;4.25;;
41446;SDS011;27185;52.040;4.490;2023-08-30T08:11:08;5.88;;;4.93;;
41446;SDS011;27185;52.040;4.490;2023-08-30T08:13:53;8.05;;;5.55;;
41446;SDS011;27185;52.040;4.490;2023-08-30T08:16:39;7.20;;;6.07;;
41446;SDS011;27185;52.040;4.490;2023-08-30T08:19:25;13.05;;;6.65;;
41446;SDS011;27185;52.040;4.490;2023-08-30T08:22:10;7.32;;;5.97;;
41446;SDS011;27185;52.040;4.490;2023-08-30T08:24:56;9.18;;;7.00;;
41446;SDS011;27185;52.040;4.490;2023-08-30T08:27:42;10.43;;;9.30;;
41446;SDS011;27185;52.040;4.490;2023-08-30T08:30:27;11.10;;;8.82;;
41446;SDS011;27185;52.040;4.490;2023-08-30T08:33:13;9.85;;;8.63;;
41446;SDS011;27185;52.040;4.490;2023-08-30T08:35:59;8.25;;;7.38;;
41446;SDS011;27185;52.040;4.490;2023-08-30T08:38:44;8.07;;;7.28;;
41446;SDS011;27185;52.040;4.490;2023-08-30T08:41:42;8.32;;;7.53;;
41446;SDS011;27185;52.040;4.490;2023-08-30T08:44:31;10.68;;;6.60;;
41446;SDS011;27185;52.040;4.490;2023-08-30T08:47:17;5.80;;;4.88;;
41446;SDS011;27185;52.040;4.490;2023-08-30T08:50:05;4.72;;;3.90;;
41446;SDS011;27185;52.040;4.490;2023-08-30T08:52:51;3.60;;;2.65;;
41446;SDS011;27185;52.040;4.490;2023-08-30T08:55:38;4.25;;;2.30;;
41446;SDS011;27185;52.040;4.490;2023-08-30T08:58:25;3.88;;;1.55;;
41446;SDS011;27185;52.040;4.490;2023-08-30T09:01:14;3.08;;;1.73;;
41446;SDS011;27185;52.040;4.490;2023-08-30T09:04:03;4.88;;;1.50;;
41446;SDS011;27185;52.040;4.490;2023-08-30T09:06:53;3.75;;;1.33;;
41446;SDS011;27185;52.040;4.490;2023-08-30T09:09:39;4.97;;;1.60;;
41446;SDS011;27185;52.040;4.490;2023-08-30T09:12:25;4.97;;;1.92;;
41446;SDS011;27185;52.040;4.490;2023-08-30T09:15:11;7.25;;;1.95;;
41446;SDS011;27185;52.040;4.490;2023-08-30T09:17:56;7.43;;;1.75;;
41446;SDS011;27185;52.040;4.490;2023-08-30T09:20:42;5.95;;;1.45;;
41446;SDS011;27185;52.040;4.490;2023-08-30T09:23:28;4.47;;;1.60;;
41446;SDS011;27185;52.040;4.490;2023-08-30T09:26:13;4.35;;;1.63;;
41446;SDS011;27185;52.040;4.490;2023-08-30T09:29:02;8.82;;;1.80;;
41446;SDS011;27185;52.040;4.490;2023-08-30T09:31:52;5.28;;;1.67;;
41446;SDS011;27185;52.040;4.490;2023-08-30T09:34:45;7.05;;;1.60;;
41446;SDS011;27185;52.040;4.490;2023-08-30T09:37:31;5.85;;;1.88;;
41446;SDS011;27185;52.040;4.490;2023-08-30T09:40:20;7.80;;;1.65;;
41446;SDS011;27185;52.040;4.490;2023-08-30T09:43:05;5.93;;;1.33;;
41446;SDS011;27185;52.040;4.490;2023-08-30T09:45:52;5.85;;;1.45;;
41446;SDS011;27185;52.040;4.490;2023-08-30T09:48:37;5.03;;;0.98;;
41446;SDS011;27185;52.040;4.490;2023-08-30T09:51:25;7.47;;;1.50;;
41446;SDS011;27185;52.040;4.490;2023-08-30T09:54:18;5.13;;;1.40;;
41446;SDS011;27185;52.040;4.490;2023-08-30T09:57:05;6.60;;;1.38;;
41446;SDS011;27185;52.040;4.490;2023-08-30T09:59:51;7.13;;;1.42;;
41446;SDS011;27185;52.040;4.490;2023-08-30T10:02:36;6.90;;;1.27;;
41446;SDS011;27185;52.040;4.490;2023-08-30T10:05:25;6.45;;;1.25;;
41446;SDS011;27185;52.040;4.490;2023-08-30T10:08:13;5.70;;;1.42;;
41446;SDS011;27185;52.040;4.490;2023-08-30T10:10:59;6.65;;;1.58;;
41446;SDS011;27185;52.040;4.490;2023-08-30T10:13:45;5.13;;;1.08;;
41446;SDS011;27185;52.040;4.490;2023-08-30T10:16:56;9.18;;;1.58;;
41446;SDS011;27185;52.040;4.490;2023-08-30T10:19:44;6.30;;;1.10;;
41446;SDS011;27185;52.040;4.490;2023-08-30T10:22:31;8.15;;;1.65;;
41446;SDS011;27185;52.040;4.490;2023-08-30T10:25:21;7.57;;;1.35;;
41446;SDS011;27185;52.040;4.490;2023-08-30T10:28:09;5.82;;;1.33;;
41446;SDS011;27185;52.040;4.490;2023-08-30T10:30:56;7.60;;;1.48;;
41446;SDS011;27185;52.040;4.490;2023-08-30T10:33:49;10.32;;;1.30;;
41446;SDS011;27185;52.040;4.490;2023-08-30T10:36:35;6.78;;;1.15;;
41446;SDS011;27185;52.040;4.490;2023-08-30T10:39:27;6.00;;;1.55;;
41446;SDS011;27185;52.040;4.490;2023-08-30T10:42:22;4.70;;;0.90;;
41446;SDS011;27185;52.040;4.490;2023-08-30T10:45:09;6.10;;;1.25;;
41446;SDS011;27185;52.040;4.490;2023-08-30T10:47:56;6.93;;;1.00;;
41446;SDS011;27185;52.040;4.490;2023-08-30T10:50:43;3.63;;;1.40;;
41446;SDS011;27185;52.040;4.490;2023-08-30T10:53:29;8.07;;;1.23;;
41446;SDS011;27185;52.040;4.490;2023-08-30T10:56:15;4.45;;;0.85;;
41446;SDS011;27185;52.040;4.490;2023-08-30T10:59:04;4.82;;;1.25;;
41446;SDS011;27185;52.040;4.490;2023-08-30T11:01:50;8.52;;;1.00;;
41446;SDS011;27185;52.040;4.490;2023-08-30T11:04:39;5.70;;;0.93;;
41446;SDS011;27185;52.040;4.490;2023-08-30T11:07:26;7.03;;;1.27;;
41446;SDS011;27185;52.040;4.490;2023-08-30T11:10:12;5.18;;;0.80;;
41446;SDS011;27185;52.040;4.490;2023-08-30T11:12:58;5.78;;;1.27;;
41446;SDS011;27185;52.040;4.490;2023-08-30T11:15:43;5.85;;;1.02;;
41446;SDS011;27185;52.040;4.490;2023-08-30T11:18:29;6.22;;;1.00;;
41446;SDS011;27185;52.040;4.490;2023-08-30T11:21:16;6.32;;;0.75;;
41446;SDS011;27185;52.040;4.490;2023-08-30T11:24:03;4.95;;;1.10;;
41446;SDS011;27185;52.040;4.490;2023-08-30T11:29:39;7.28;;;1.23;;
41446;SDS011;27185;52.040;4.490;2023-08-30T11:32:25;6.82;;;1.02;;
41446;SDS011;27185;52.040;4.490;2023-08-30T11:35:10;8.73;;;1.67;;
41446;SDS011;27185;52.040;4.490;2023-08-30T11:37:56;7.93;;;1.70;;
41446;SDS011;27185;52.040;4.490;2023-08-30T11:40:43;5.97;;;1.20;;
41446;SDS011;27185;52.040;4.490;2023-08-30T11:43:29;7.22;;;1.35;;
41446;SDS011;27185;52.040;4.490;2023-08-30T11:46:14;5.85;;;1.33;;
41446;SDS011;27185;52.040;4.490;2023-08-30T11:49:01;6.72;;;1.20;;
41446;SDS011;27185;52.040;4.490;2023-08-30T11:51:47;6.63;;;1.02;;
41446;SDS011;27185;52.040;4.490;2023-08-30T11:54:33;6.10;;;0.73;;
41446;SDS011;27185;52.040;4.490;2023-08-30T11:57:19;3.42;;;0.68;;
41446;SDS011;27185;52.040;4.490;2023-08-30T12:00:06;4.88;;;1.00;;
41446;SDS011;27185;52.040;4.490;2023-08-30T12:02:54;4.03;;;0.82;;
41446;SDS011;27185;52.040;4.490;2023-08-30T12:05:44;3.72;;;0.80;;
41446;SDS011;27185;52.040;4.490;2023-08-30T12:08:33;4.97;;;0.90;;
41446;SDS011;27185;52.040;4.490;2023-08-30T12:11:20;6.28;;;1.13;;
41446;SDS011;27185;52.040;4.490;2023-08-30T12:14:05;4.38;;;0.95;;
41446;SDS011;27185;52.040;4.490;2023-08-30T12:16:51;7.70;;;0.90;;
41446;SDS011;27185;52.040;4.490;2023-08-30T12:19:36;8.75;;;1.10;;
41446;SDS011;27185;52.040;4.490;2023-08-30T12:22:22;6.25;;;0.93;;
41446;SDS011;27185;52.040;4.490;2023-08-30T12:25:18;4.43;;;0.70;;
41446;SDS011;27185;52.040;4.490;2023-08-30T12:28:08;4.55;;;1.13;;
41446;SDS011;27185;52.040;4.490;2023-08-30T12:30:55;6.00;;;0.85;;
41446;SDS011;27185;52.040;4.490;2023-08-30T12:33:41;6.18;;;1.10;;
41446;SDS011;27185;52.040;4.490;2023-08-30T12:36:26;5.63;;;0.98;;
41446;SDS011;27185;52.040;4.490;2023-08-30T12:39:12;3.50;;;0.88;;
41446;SDS011;27185;52.040;4.490;2023-08-30T12:41:58;5.60;;;0.90;;
41446;SDS011;27185;52.040;4.490;2023-08-30T12:44:44;6.60;;;1.30;;
41446;SDS011;27185;52.040;4.490;2023-08-30T12:47:30;5.78;;;0.90;;
41446;SDS011;27185;52.040;4.490;2023-08-30T12:50:15;4.70;;;1.10;;
41446;SDS011;27185;52.040;4.490;2023-08-30T12:53:04;2.83;;;0.90;;
41446;SDS011;27185;52.040;4.490;2023-08-30T12:55:51;4.40;;;1.10;;
41446;SDS011;27185;52.040;4.490;2023-08-30T12:58:36;6.63;;;1.00;;
41446;SDS011;27185;52.040;4.490;2023-08-30T13:01:22;4.63;;;1.13;;
41446;SDS011;27185;52.040;4.490;2023-08-30T13:04:09;4.97;;;0.90;;
41446;SDS011;27185;52.040;4.490;2023-08-30T13:06:55;6.43;;;1.38;;
41446;SDS011;27185;52.040;4.490;2023-08-30T13:09:41;4.07;;;0.80;;
41446;SDS011;27185;52.040;4.490;2023-08-30T13:12:26;3.05;;;0.65;;
41446;SDS011;27185;52.040;4.490;2023-08-30T13:15:12;3.80;;;0.60;;
41446;SDS011;27185;52.040;4.490;2023-08-30T13:17:57;4.68;;;0.85;;
41446;SDS011;27185;52.040;4.490;2023-08-30T13:20:43;6.10;;;1.05;;
41446;SDS011;27185;52.040;4.490;2023-08-30T13:23:29;2.65;;;0.60;;
41446;SDS011;27185;52.040;4.490;2023-08-30T13:26:15;3.03;;;0.70;;
41446;SDS011;27185;52.040;4.490;2023-08-30T13:29:01;2.92;;;0.80;;
41446;SDS011;27185;52.040;4.490;2023-08-30T13:31:47;2.78;;;0.60;;
41446;SDS011;27185;52.040;4.490;2023-08-30T13:34:32;6.40;;;0.68;;
41446;SDS011;27185;52.040;4.490;2023-08-30T13:37:18;5.03;;;0.77;;
41446;SDS011;27185;52.040;4.490;2023-08-30T13:40:04;3.85;;;0.65;;
41446;SDS011;27185;52.040;4.490;2023-08-30T13:42:50;5.43;;;0.73;;
41446;SDS011;27185;52.040;4.490;2023-08-30T13:45:36;3.13;;;1.00;;
41446;SDS011;27185;52.040;4.490;2023-08-30T13:48:22;4.25;;;0.80;;
41446;SDS011;27185;52.040;4.490;2023-08-30T13:51:07;4.45;;;0.68;;
41446;SDS011;27185;52.040;4.490;2023-08-30T13:53:54;4.43;;;0.70;;
41446;SDS011;27185;52.040;4.490;2023-08-30T13:56:40;3.87;;;0.60;;
41446;SDS011;27185;52.040;4.490;2023-08-30T13:59:26;5.40;;;0.60;;
41446;SDS011;27185;52.040;4.490;2023-08-30T14:02:13;5.80;;;0.82;;
41446;SDS011;27185;52.040;4.490;2023-08-30T14:04:59;3.88;;;0.88;;
41446;SDS011;27185;52.040;4.490;2023-08-30T14:07:44;4.95;;;0.70;;
41446;SDS011;27185;52.040;4.490;2023-08-30T14:10:30;4.35;;;0.70;;
41446;SDS011;27185;52.040;4.490;2023-08-30T14:13:16;4.75;;;0.80;;
41446;SDS011;27185;52.040;4.490;2023-08-30T14:16:02;3.40;;;0.88;;
41446;SDS011;27185;52.040;4.490;2023-08-30T14:18:48;14.45;;;0.93;;
41446;SDS011;27185;52.040;4.490;2023-08-30T14:21:34;3.45;;;0.68;;
41446;SDS011;27185;52.040;4.490;2023-08-30T14:24:20;6.05;;;1.27;;
41446;SDS011;27185;52.040;4.490;2023-08-30T14:27:05;5.93;;;0.90;;
41446;SDS011;27185;52.040;4.490;2023-08-30T14:29:52;3.40;;;0.80;;
41446;SDS011;27185;52.040;4.490;2023-08-30T14:32:38;5.10;;;0.70;;
41446;SDS011;27185;52.040;4.490;2023-08-30T14:35:25;4.00;;;1.00;;
41446;SDS011;27185;52.040;4.490;2023-08-30T14:38:10;3.20;;;0.65;;
41446;SDS011;27185;52.040;4.490;2023-08-30T14:40:56;4.88;;;0.82;;
41446;SDS011;27185;52.040;4.490;2023-08-30T14:43:43;4.00;;;0.97;;
41446;SDS011;27185;52.040;4.490;2023-08-30T14:46:29;3.50;;;0.70;;
41446;SDS011;27185;52.040;4.490;2023-08-30T14:49:14;5.30;;;0.60;;
41446;SDS011;27185;52.040;4.490;2023-08-30T14:52:00;4.03;;;0.73;;
41446;SDS011;27185;52.040;4.490;2023-08-30T14:54:45;5.20;;;0.70;;
41446;SDS011;27185;52.040;4.490;2023-08-30T14:57:31;4.32;;;1.23;;
41446;SDS011;27185;52.040;4.490;2023-08-30T15:00:17;3.97;;;0.60;;
41446;SDS011;27185;52.040;4.490;2023-08-30T15:03:02;2.47;;;0.70;;
41446;SDS011;27185;52.040;4.490;2023-08-30T15:05:55;5.80;;;0.88;;
41446;SDS011;27185;52.040;4.490;2023-08-30T15:08:41;4.45;;;0.70;;
41446;SDS011;27185;52.040;4.490;2023-08-30T15:11:27;5.43;;;0.95;;
41446;SDS011;27185;52.040;4.490;2023-08-30T15:14:13;4.15;;;0.55;;
41446;SDS011;27185;52.040;4.490;2023-08-30T15:16:58;4.30;;;1.08;;
41446;SDS011;27185;52.040;4.490;2023-08-30T15:19:44;4.88;;;0.70;;
41446;SDS011;27185;52.040;4.490;2023-08-30T15:22:29;2.25;;;0.50;;
41446;SDS011;27185;52.040;4.490;2023-08-30T15:25:15;3.55;;;0.60;;
41446;SDS011;27185;52.040;4.490;2023-08-30T15:28:00;4.82;;;0.60;;
41446;SDS011;27185;52.040;4.490;2023-08-30T15:30:49;3.70;;;0.57;;
41446;SDS011;27185;52.040;4.490;2023-08-30T15:33:35;3.10;;;0.50;;
41446;SDS011;27185;52.040;4.490;2023-08-30T15:36:21;4.00;;;0.60;;
41446;SDS011;27185;52.040;4.490;2023-08-30T15:39:07;3.58;;;0.60;;
41446;SDS011;27185;52.040;4.490;2023-08-30T15:41:53;5.23;;;0.70;;
41446;SDS011;27185;52.040;4.490;2023-08-30T15:44:39;4.72;;;0.70;;
41446;SDS011;27185;52.040;4.490;2023-08-30T15:47:24;5.88;;;0.60;;
41446;SDS011;27185;52.040;4.490;2023-08-30T15:50:11;4.82;;;0.70;;
41446;SDS011;27185;52.040;4.490;2023-08-30T15:52:57;3.92;;;0.47;;
41446;SDS011;27185;52.040;4.490;2023-08-30T15:55:42;3.17;;;0.60;;
41446;SDS011;27185;52.040;4.490;2023-08-30T15:58:28;3.63;;;0.60;;
41446;SDS011;27185;52.040;4.490;2023-08-30T16:01:13;6.32;;;0.88;;
41446;SDS011;27185;52.040;4.490;2023-08-30T16:04:00;5.10;;;0.60;;
41446;SDS011;27185;52.040;4.490;2023-08-30T16:06:45;3.50;;;0.50;;
41446;SDS011;27185;52.040;4.490;2023-08-30T16:09:31;2.70;;;0.55;;
41446;SDS011;27185;52.040;4.490;2023-08-30T16:12:16;5.57;;;0.57;;
41446;SDS011;27185;52.040;4.490;2023-08-30T16:15:02;3.05;;;0.40;;
41446;SDS011;27185;52.040;4.490;2023-08-30T16:17:48;2.95;;;0.50;;
41446;SDS011;27185;52.040;4.490;2023-08-30T16:20:34;2.30;;;0.40;;
41446;SDS011;27185;52.040;4.490;2023-08-30T16:23:19;3.15;;;0.60;;
41446;SDS011;27185;52.040;4.490;2023-08-30T16:26:05;3.47;;;0.50;;
41446;SDS011;27185;52.040;4.490;2023-08-30T16:28:50;2.92;;;0.50;;
41446;SDS011;27185;52.040;4.490;2023-08-30T16:31:36;5.13;;;0.57;;
41446;SDS011;27185;52.040;4.490;2023-08-30T16:34:22;5.35;;;0.57;;
41446;SDS011;27185;52.040;4.490;2023-08-30T16:37:07;2.95;;;0.47;;
41446;SDS011;27185;52.040;4.490;2023-08-30T16:39:53;3.00;;;0.55;;
41446;SDS011;27185;52.040;4.490;2023-08-30T16:42:39;3.60;;;0.50;;
41446;SDS011;27185;52.040;4.490;2023-08-30T16:45:24;2.97;;;0.50;;
41446;SDS011;27185;52.040;4.490;2023-08-30T16:48:10;6.07;;;0.75;;
41446;SDS011;27185;52.040;4.490;2023-08-30T16:50:57;3.55;;;0.60;;
41446;SDS011;27185;52.040;4.490;2023-08-30T16:53:43;5.75;;;0.65;;